createdAt,value
2018-09-04T00:03:35.432Z,22.29
2018-09-04T00:08:18.974Z,22.18
2018-09-04T00:13:08.405Z,22.34
2018-09-04T00:17:52.239Z,22.69
2018-09-04T00:22:39.684Z,22.59
2018-09-04T00:27:23.657Z,22.98
2018-09-04T00:32:08.351Z,23.16
2018-09-04T00:36:51.883Z,23.23
2018-09-04T00:41:38.737Z,22.81
2018-09-04T00:46:22.385Z,22.66
2018-09-04T00:51:05.975Z,22.77
2018-09-04T00:55:49.661Z,22.87
2018-09-04T01:00:33.301Z,22.98
2018-09-04T01:05:16.887Z,23.03
2018-09-04T01:10:00.574Z,22.39
2018-09-04T01:14:45.254Z,21.58
2018-09-04T01:19:28.902Z,21.25
2018-09-04T01:24:13.651Z,21.08
2018-09-04T01:28:57.155Z,21.38
2018-09-04T01:33:41.011Z,21.34
2018-09-04T01:38:24.524Z,21.39
2018-09-04T01:43:08.190Z,21.09
2018-09-04T01:47:51.759Z,21.06
2018-09-04T01:52:40.018Z,21.28
2018-09-04T01:57:23.593Z,21.25
2018-09-04T02:02:08.327Z,21.23
2018-09-04T02:06:51.879Z,21.24
2018-09-04T02:11:35.293Z,21.65
2018-09-04T02:16:18.844Z,21.79
2018-09-04T02:21:03.396Z,21.53
2018-09-04T02:25:47.128Z,21.38
2018-09-04T02:30:33.778Z,21.24
2018-09-04T02:35:17.377Z,21.49
2018-09-04T02:40:00.982Z,21.45
2018-09-04T02:44:50.481Z,21.23
2018-09-04T02:49:34.110Z,21.09
2018-09-04T02:54:21.591Z,21.49
2018-09-04T02:59:05.106Z,21.66
2018-09-04T03:03:51.594Z,21.56
2018-09-04T03:08:35.070Z,21.67
2018-09-04T03:13:19.667Z,21.61
2018-09-04T03:18:03.397Z,21.81
2018-09-04T03:22:47.191Z,21.89
2018-09-04T03:27:30.774Z,21.88
2018-09-04T03:32:15.368Z,21.87
2018-09-04T03:36:58.998Z,21.67
2018-09-04T03:41:43.713Z,21.56
2018-09-04T03:46:27.357Z,21.66
2018-09-04T03:51:11.138Z,21.69
2018-09-04T03:55:54.770Z,21.81
2018-09-04T04:00:39.667Z,21.70
2018-09-04T04:05:23.241Z,21.63
2018-09-04T04:10:06.772Z,21.73
2018-09-04T04:14:50.412Z,21.57
2018-09-04T04:19:34.015Z,21.70
2018-09-04T04:24:18.694Z,21.60
2018-09-04T04:29:02.229Z,21.44
2018-09-04T04:33:45.782Z,21.82
2018-09-04T04:38:39.817Z,22.08
2018-09-04T04:43:23.603Z,22.21
2018-09-04T04:48:07.259Z,22.39
2018-09-04T04:52:50.900Z,22.55
2018-09-04T04:57:34.677Z,22.75
2018-09-04T05:02:18.470Z,22.91
2018-09-04T05:07:02.088Z,23.03
2018-09-04T05:11:45.730Z,22.86
2018-09-04T05:16:29.358Z,22.85
2018-09-04T05:21:13.290Z,22.57
2018-09-04T05:25:56.893Z,22.35
2018-09-04T05:30:41.521Z,22.37
2018-09-04T05:35:25.175Z,22.73
2018-09-04T05:40:08.977Z,23.19
2018-09-04T05:44:52.728Z,23.10
2018-09-04T05:49:36.288Z,23.42
2018-09-04T05:54:20.080Z,23.63
2018-09-04T05:59:03.787Z,23.53
2018-09-04T06:03:47.339Z,24.15
2018-09-04T06:08:30.947Z,24.24
2018-09-04T06:13:14.718Z,24.71
2018-09-04T06:17:58.289Z,24.75
2018-09-04T06:22:42.088Z,24.90
2018-09-04T06:27:25.562Z,24.37
2018-09-04T06:32:10.440Z,24.47
2018-09-04T06:36:54.132Z,24.67
2018-09-04T06:41:39.770Z,24.52
2018-09-04T06:46:23.546Z,24.38
2018-09-04T06:51:08.346Z,24.85
2018-09-04T06:55:51.898Z,24.90
2018-09-04T07:00:39.437Z,24.91
2018-09-04T07:05:22.991Z,25.03
2018-09-04T07:10:06.928Z,25.24
2018-09-04T07:14:50.482Z,25.59
2018-09-04T07:19:34.272Z,25.87
2018-09-04T07:24:18.094Z,25.92
2018-09-04T07:29:01.648Z,26.00
2018-09-04T07:33:45.547Z,25.90
2018-09-04T07:38:29.140Z,26.17
2018-09-04T07:43:13.805Z,26.04
2018-09-04T07:47:58.461Z,26.34
2018-09-04T07:52:42.198Z,26.41
2018-09-04T07:57:25.867Z,26.57
2018-09-04T08:02:09.807Z,26.52
2018-09-04T08:06:53.503Z,26.74
2018-09-04T08:11:37.356Z,26.91
2018-09-04T08:16:20.939Z,26.98
2018-09-04T08:21:05.571Z,27.32
2018-09-04T08:25:49.678Z,27.79
2018-09-04T08:30:38.767Z,27.62
2018-09-04T08:35:22.307Z,27.49
2018-09-04T08:40:09.096Z,27.45
2018-09-04T08:44:52.608Z,27.40
2018-09-04T08:49:36.473Z,27.63
2018-09-04T08:54:19.775Z,28.01
2018-09-04T08:59:03.649Z,28.20
2018-09-04T09:03:48.267Z,28.16
2018-09-04T09:08:31.823Z,28.58
2018-09-04T09:13:19.048Z,28.81
2018-09-04T09:18:02.703Z,28.53
2018-09-04T09:22:46.323Z,28.83
2018-09-04T09:27:29.738Z,29.10
2018-09-04T09:32:14.367Z,29.76
2018-09-04T09:36:57.966Z,29.96
2018-09-04T09:41:45.269Z,29.82
2018-09-04T09:46:32.354Z,30.26
2018-09-04T09:51:19.680Z,30.68
2018-09-04T09:56:03.316Z,31.98
2018-09-04T10:00:54.331Z,32.09
2018-09-04T10:05:37.759Z,30.66
2018-09-04T10:10:21.607Z,30.35
2018-09-04T10:15:04.945Z,30.05
2018-09-04T10:19:48.707Z,29.76
2018-09-04T10:24:32.013Z,29.67
2018-09-04T10:29:16.266Z,30.08
2018-09-04T10:33:59.790Z,30.73
2018-09-04T10:38:43.138Z,30.14
2018-09-04T10:43:32.570Z,30.26
2018-09-04T10:48:20.331Z,30.25
2018-09-04T10:53:03.763Z,30.12
2018-09-04T10:57:47.220Z,30.10
2018-09-04T11:02:31.297Z,30.09
2018-09-04T11:07:14.778Z,30.47
2018-09-04T11:11:58.360Z,30.70
2018-09-04T14:59:11.462Z,29.70
2018-09-04T15:03:55.997Z,29.50
2018-09-04T15:08:39.434Z,29.20
2018-09-04T15:13:24.396Z,29.09
2018-09-04T15:18:07.837Z,29.11
2018-09-04T15:22:51.777Z,28.84
2018-09-04T15:27:36.274Z,28.56
2018-09-04T15:32:20.273Z,28.64
2018-09-04T15:37:04.380Z,28.50
2018-09-04T15:41:47.845Z,28.53
2018-09-04T15:46:33.422Z,28.58
2018-09-04T15:51:17.146Z,28.21
2018-09-04T15:56:01.846Z,28.25
2018-09-04T16:00:45.644Z,28.13
2018-09-04T16:05:29.314Z,28.20
2018-09-04T16:10:13.048Z,28.05
2018-09-04T16:14:56.962Z,28.05
2018-09-04T16:19:40.571Z,28.17
2018-09-04T16:24:24.171Z,27.97
2018-09-04T16:29:07.702Z,27.89
2018-09-04T16:33:52.097Z,27.90
2018-09-04T16:38:36.402Z,28.04
2018-09-04T16:43:20.129Z,27.87
2018-09-04T16:48:03.736Z,27.78
2018-09-04T16:52:47.465Z,27.84
2018-09-04T16:57:34.677Z,27.84
2018-09-04T17:02:19.239Z,27.27
2018-09-04T17:07:02.627Z,27.44
2018-09-04T17:11:46.490Z,27.33
2018-09-04T17:16:32.163Z,27.36
2018-09-04T17:21:15.876Z,26.50
2018-09-04T17:26:00.586Z,26.08
2018-09-04T17:30:47.099Z,26.54
2018-09-04T17:35:34.457Z,26.75
2018-09-04T17:40:18.660Z,26.13
2018-09-04T17:45:03.247Z,25.65
2018-09-04T17:49:46.683Z,25.93
2018-09-04T17:54:33.669Z,26.15
2018-09-04T17:59:18.151Z,26.07
2018-09-04T18:04:01.719Z,26.16
2018-09-04T18:08:48.227Z,25.98
2018-09-04T18:13:32.474Z,26.05
2018-09-04T18:18:24.503Z,26.23
2018-09-04T18:23:08.027Z,26.20
2018-09-04T18:27:51.510Z,26.07
2018-09-04T18:32:36.060Z,25.59
2018-09-04T18:37:19.347Z,25.52
2018-09-04T18:42:05.568Z,25.72
2018-09-04T18:46:48.936Z,25.64
2018-09-04T18:51:33.396Z,25.13
2018-09-04T18:56:16.717Z,24.59
2018-09-04T19:01:00.186Z,24.78
2018-09-04T19:05:44.826Z,24.59
2018-09-04T19:10:28.612Z,24.43
2018-09-04T19:15:15.482Z,24.90
2018-09-04T19:19:58.978Z,25.05
2018-09-04T19:24:43.508Z,24.84
2018-09-04T19:29:26.876Z,24.89
2018-09-04T19:34:11.040Z,24.73
2018-09-04T19:38:54.486Z,24.55
2018-09-04T19:43:39.441Z,24.96
2018-09-04T19:48:22.911Z,24.91
2018-09-04T19:53:06.491Z,24.70
2018-09-04T19:57:50.741Z,25.18
2018-09-04T20:02:34.276Z,25.33
2018-09-04T20:07:18.479Z,25.36
2018-09-04T20:12:06.229Z,25.58
2018-09-04T20:16:49.657Z,25.67
2018-09-04T20:21:36.167Z,25.69
2018-09-04T20:26:19.494Z,25.76
2018-09-04T20:31:03.355Z,25.56
2018-09-04T20:35:47.731Z,25.17
2018-09-04T20:40:31.239Z,25.16
2018-09-04T20:45:14.873Z,25.41
2018-09-04T20:49:58.179Z,25.47
2018-09-04T20:54:42.177Z,25.43
2018-09-04T20:59:36.367Z,25.07
2018-09-04T21:04:30.728Z,25.02
2018-09-04T21:09:39.499Z,25.39
2018-09-04T21:14:23.139Z,25.25
2018-09-04T21:19:06.557Z,24.91
2018-09-04T21:23:53.929Z,24.82
2018-09-04T21:28:38.334Z,25.11
2018-09-04T21:33:22.053Z,24.94
2018-09-04T21:38:05.482Z,25.03
2018-09-04T21:42:49.234Z,25.24
2018-09-04T21:47:32.811Z,25.23
2018-09-04T21:52:19.571Z,25.06
2018-09-04T21:57:03.012Z,24.71
2018-09-04T22:01:47.638Z,24.54
2018-09-04T22:06:31.066Z,24.88
2018-09-04T22:11:18.862Z,24.94
2018-09-04T22:16:02.518Z,24.84
2018-09-04T22:20:45.797Z,25.02
2018-09-04T22:25:30.580Z,25.16
2018-09-04T22:30:15.280Z,25.05
2018-09-04T22:34:58.959Z,24.88
2018-09-04T22:39:42.448Z,24.42
2018-09-04T22:44:27.255Z,24.36
2018-09-04T22:49:10.753Z,24.33
2018-09-04T22:53:54.418Z,24.43
2018-09-04T22:58:38.028Z,24.34
2018-09-04T23:03:21.550Z,24.48
2018-09-04T23:08:05.019Z,24.73
2018-09-04T23:12:51.759Z,24.86
2018-09-04T23:17:35.246Z,24.94
2018-09-04T23:22:19.943Z,24.54
2018-09-04T23:27:03.560Z,24.32
2018-09-04T23:31:48.352Z,23.98
2018-09-04T23:36:31.922Z,24.31
2018-09-04T23:41:16.518Z,24.32
2018-09-04T23:46:00.001Z,24.24
2018-09-04T23:50:43.524Z,23.99
2018-09-04T23:55:26.999Z,23.83
